createdAt,value
2018-02-02T00:00:01.512Z,2.79
2018-02-02T00:01:01.413Z,2.79
2018-02-02T00:02:01.439Z,2.84
2018-02-02T00:03:01.641Z,2.77
2018-02-02T00:04:05.437Z,2.77
2018-02-02T00:05:05.298Z,2.79
2018-02-02T00:06:05.368Z,2.77
2018-02-02T00:07:05.355Z,2.8
2018-02-02T00:08:05.355Z,2.79
2018-02-02T00:09:05.352Z,2.76
2018-02-02T00:10:05.386Z,2.75
2018-02-02T00:11:05.370Z,2.77
2018-02-02T00:12:05.374Z,2.8
2018-02-02T00:13:05.353Z,2.75
2018-02-02T00:14:05.354Z,2.75
2018-02-02T00:15:05.417Z,2.77
2018-02-02T00:16:05.356Z,2.75
2018-02-02T00:17:05.512Z,2.75
2018-02-02T00:18:05.429Z,2.77
2018-02-02T00:19:05.454Z,2.8
2018-02-02T00:20:05.356Z,2.77
2018-02-02T00:21:05.567Z,2.77
2018-02-02T00:22:05.538Z,2.76
2018-02-02T00:23:05.424Z,2.73
2018-02-02T00:24:05.474Z,2.73
2018-02-02T00:25:05.393Z,2.71
2018-02-02T00:26:05.597Z,2.72
2018-02-02T00:27:05.442Z,2.72
2018-02-02T00:28:05.358Z,2.73
2018-02-02T00:29:05.418Z,2.73
2018-02-02T00:30:05.472Z,2.75
2018-02-02T00:31:05.482Z,2.75
2018-02-02T00:32:05.496Z,2.72
2018-02-02T00:33:05.484Z,2.75
2018-02-02T00:34:07.454Z,2.68
2018-02-02T00:35:07.459Z,2.71
2018-02-02T00:36:07.411Z,2.71
2018-02-02T00:37:07.484Z,2.68
2018-02-02T00:38:07.477Z,2.72
2018-02-02T00:39:07.514Z,2.71
2018-02-02T00:40:07.375Z,2.68
2018-02-02T00:41:07.436Z,2.68
2018-02-02T00:42:07.452Z,2.69
2018-02-02T00:43:07.550Z,2.69
2018-02-02T00:44:07.405Z,2.73
2018-02-02T00:45:07.399Z,2.73
2018-02-02T00:46:07.484Z,2.68
2018-02-02T00:47:07.467Z,2.73
2018-02-02T00:48:07.508Z,2.75
2018-02-02T00:49:07.532Z,2.75
2018-02-02T00:50:07.560Z,2.77
2018-02-02T00:51:07.340Z,2.77
2018-02-02T00:52:07.511Z,2.75
2018-02-02T00:53:07.458Z,2.75
2018-02-02T00:54:07.658Z,2.77
2018-02-02T00:55:07.402Z,2.72
2018-02-02T00:56:07.423Z,2.75
2018-02-02T00:57:07.495Z,2.75
2018-02-02T00:58:07.523Z,2.75
2018-02-02T00:59:07.462Z,2.73
2018-02-02T01:00:07.437Z,2.71
2018-02-02T01:01:07.423Z,2.71
2018-02-02T01:02:07.557Z,2.64
2018-02-02T01:03:07.986Z,2.61
2018-02-02T01:04:05.984Z,2.59
2018-02-02T01:05:06.119Z,2.62
2018-02-02T01:06:05.908Z,2.62
2018-02-02T01:07:05.908Z,2.62
2018-02-02T01:08:05.907Z,2.64
2018-02-02T01:09:05.941Z,2.61
2018-02-02T01:10:05.845Z,2.64
2018-02-02T01:11:06.124Z,2.65
2018-02-02T01:12:05.836Z,2.62
2018-02-02T01:13:05.818Z,2.61
2018-02-02T01:14:05.860Z,2.58
2018-02-02T01:15:05.865Z,2.61
2018-02-02T01:16:05.999Z,2.64
2018-02-02T01:17:06.251Z,2.58
2018-02-02T01:18:05.832Z,2.58
2018-02-02T01:19:06.023Z,2.59
2018-02-02T01:20:05.937Z,2.62
2018-02-02T01:21:05.944Z,2.61
2018-02-02T01:22:05.868Z,2.59
2018-02-02T01:23:05.865Z,2.59
2018-02-02T01:24:05.875Z,2.58
2018-02-02T01:25:05.894Z,2.56
2018-02-02T01:26:05.967Z,2.59
2018-02-02T01:27:06.041Z,2.58
2018-02-02T01:28:05.982Z,2.55
2018-02-02T01:29:06.080Z,2.55
2018-02-02T01:30:06.129Z,2.55
2018-02-02T01:31:05.926Z,2.58
2018-02-02T01:32:05.951Z,2.54
2018-02-02T01:33:05.949Z,2.55
2018-02-02T01:34:05.969Z,2.51
2018-02-02T01:36:01.169Z,2.51
2018-02-02T01:37:01.049Z,2.49
2018-02-02T01:38:00.958Z,2.49
2018-02-02T01:39:01.017Z,2.51
2018-02-02T01:40:00.874Z,2.52
2018-02-02T01:41:01.003Z,2.49
2018-02-02T01:42:01.052Z,2.49
2018-02-02T01:43:00.978Z,2.47
2018-02-02T01:44:00.989Z,2.51
2018-02-02T01:45:00.954Z,2.48
2018-02-02T01:46:01.003Z,2.49
2018-02-02T01:47:00.986Z,2.51
2018-02-02T01:48:01.226Z,2.52
2018-02-02T01:49:00.850Z,2.49
2018-02-02T01:50:01.085Z,2.55
2018-02-02T01:51:00.985Z,2.55
2018-02-02T01:52:01.140Z,2.58
2018-02-02T01:53:00.965Z,2.55
2018-02-02T01:54:00.944Z,2.54
2018-02-02T01:55:00.952Z,2.54
2018-02-02T01:56:00.943Z,2.52
2018-02-02T01:57:00.989Z,2.54
2018-02-02T01:58:00.933Z,2.54
2018-02-02T01:59:00.968Z,2.51
2018-02-02T02:00:00.947Z,2.47
2018-02-02T02:01:01.028Z,2.43
2018-02-02T02:02:01.062Z,2.45
2018-02-02T02:03:01.217Z,2.45
2018-02-02T02:04:00.951Z,2.4
2018-02-02T02:05:00.923Z,2.47
2018-02-02T02:05:57.998Z,2.43
2018-02-02T02:06:57.952Z,2.43
2018-02-02T02:07:58.020Z,2.48
2018-02-02T02:08:58.670Z,2.43
2018-02-02T02:09:57.994Z,2.44
2018-02-02T02:10:57.998Z,2.38
2018-02-02T02:11:57.928Z,2.4
2018-02-02T02:12:57.893Z,2.38
2018-02-02T02:13:57.998Z,2.33
2018-02-02T02:14:58.236Z,2.36
2018-02-02T02:15:57.995Z,2.4
2018-02-02T02:16:57.908Z,2.34
2018-02-02T02:17:58.030Z,2.36
2018-02-02T02:18:58.145Z,2.37
2018-02-02T02:19:58.092Z,2.37
2018-02-02T02:20:57.924Z,2.36
2018-02-02T02:21:58.043Z,2.34
2018-02-02T02:22:57.900Z,2.36
2018-02-02T02:23:57.988Z,2.36
2018-02-02T02:24:58.130Z,2.4
2018-02-02T02:25:57.961Z,2.4
2018-02-02T02:26:57.959Z,2.43
2018-02-02T02:27:57.950Z,2.38
2018-02-02T02:28:57.913Z,2.4
2018-02-02T02:29:58.064Z,2.4
2018-02-02T02:30:57.873Z,2.34
2018-02-02T02:31:57.956Z,2.34
2018-02-02T02:32:57.965Z,2.34
2018-02-02T02:33:57.919Z,2.33
2018-02-02T02:34:57.970Z,2.34
2018-02-02T02:35:58.110Z,2.34
2018-02-02T02:37:00.091Z,2.36
2018-02-02T02:37:59.959Z,2.43
2018-02-02T02:39:00.064Z,2.41
2018-02-02T02:40:00.043Z,2.45
2018-02-02T02:41:00.038Z,2.45
2018-02-02T02:42:00.088Z,2.51
2018-02-02T02:43:00.020Z,2.51
2018-02-02T02:43:59.987Z,2.52
2018-02-02T02:45:00.082Z,2.52
2018-02-02T02:46:00.073Z,2.56
2018-02-02T02:47:00.009Z,2.54
2018-02-02T02:48:00.007Z,2.54
2018-02-02T02:49:00.071Z,2.55
2018-02-02T02:50:00.052Z,2.54
2018-02-02T02:50:59.999Z,2.56
2018-02-02T02:52:00.004Z,2.51
2018-02-02T02:52:59.943Z,2.55
2018-02-02T02:54:00.044Z,2.52
2018-02-02T02:55:00.166Z,2.48
2018-02-02T02:56:00.086Z,2.48
2018-02-02T02:57:00.156Z,2.51
2018-02-02T02:58:00.133Z,2.51
2018-02-02T02:58:59.984Z,2.52
2018-02-02T03:00:00.096Z,2.49
2018-02-02T03:00:59.945Z,2.55
2018-02-02T03:02:00.663Z,2.54
2018-02-02T03:03:00.059Z,2.56
2018-02-02T03:04:00.083Z,2.55
2018-02-02T03:05:00.069Z,2.56
2018-02-02T03:06:00.107Z,2.56
2018-02-02T03:06:05.054Z,2.56
2018-02-02T03:07:05.098Z,2.61
2018-02-02T03:08:05.133Z,2.59
2018-02-02T03:09:05.231Z,2.64
2018-02-02T03:10:04.954Z,2.62
2018-02-02T03:11:05.030Z,2.65
2018-02-02T03:12:05.196Z,2.66
2018-02-02T03:13:05.194Z,2.66
2018-02-02T03:14:05.191Z,2.66
2018-02-02T03:15:05.016Z,2.72
2018-02-02T03:16:05.125Z,2.72
2018-02-02T03:17:05.220Z,2.71
2018-02-02T03:18:04.998Z,2.71
2018-02-02T03:19:04.973Z,2.71
2018-02-02T03:20:05.027Z,2.71
2018-02-02T03:21:05.009Z,2.72
2018-02-02T03:22:05.034Z,2.71
2018-02-02T03:23:05.037Z,2.73
2018-02-02T03:24:05.046Z,2.71
2018-02-02T03:25:05.076Z,2.73
2018-02-02T03:26:05.033Z,2.77
2018-02-02T03:27:05.025Z,2.75
2018-02-02T03:28:05.000Z,2.75
2018-02-02T03:29:05.090Z,2.73
2018-02-02T03:30:05.110Z,2.71
2018-02-02T03:31:05.119Z,2.72
2018-02-02T03:32:05.042Z,2.71
2018-02-02T03:33:05.052Z,2.69
2018-02-02T03:34:05.168Z,2.69
2018-02-02T03:35:05.055Z,2.69
2018-02-02T03:36:05.150Z,2.68
2018-02-02T03:37:08.084Z,2.71
2018-02-02T03:38:08.159Z,2.69
2018-02-02T03:39:08.257Z,2.68
2018-02-02T03:40:08.177Z,2.66
2018-02-02T03:41:08.094Z,2.68
2018-02-02T03:42:08.119Z,2.65
2018-02-02T03:43:08.084Z,2.66
2018-02-02T03:44:08.060Z,2.65
2018-02-02T03:45:08.090Z,2.65
2018-02-02T03:46:08.180Z,2.66
2018-02-02T03:47:08.154Z,2.66
2018-02-02T03:48:08.155Z,2.69
2018-02-02T03:49:08.162Z,2.66
2018-02-02T03:50:07.982Z,2.66
2018-02-02T03:51:08.159Z,2.68
2018-02-02T03:52:08.039Z,2.71
2018-02-02T03:53:08.067Z,2.71
2018-02-02T03:54:08.133Z,2.72
2018-02-02T03:55:08.068Z,2.71
2018-02-02T03:56:08.019Z,2.73
2018-02-02T03:57:08.109Z,2.71
2018-02-02T03:58:08.048Z,2.68
2018-02-02T03:59:08.259Z,2.72
2018-02-02T04:00:08.145Z,2.69
2018-02-02T04:01:08.181Z,2.73
2018-02-02T04:02:08.189Z,2.73
2018-02-02T04:03:08.057Z,2.72
2018-02-02T04:04:08.215Z,2.73
2018-02-02T04:05:08.108Z,2.72
2018-02-02T04:06:08.242Z,2.71
2018-02-02T04:07:06.250Z,2.75
2018-02-02T04:08:06.164Z,2.73
2018-02-02T04:09:06.304Z,2.73
2018-02-02T04:10:06.207Z,2.75
2018-02-02T04:11:06.213Z,2.68
2018-02-02T04:12:06.325Z,2.73
2018-02-02T04:13:06.269Z,2.73
2018-02-02T04:14:06.327Z,2.76
2018-02-02T04:15:06.392Z,2.76
2018-02-02T04:16:06.290Z,2.75
2018-02-02T04:17:06.219Z,2.73
2018-02-02T04:18:06.240Z,2.71
2018-02-02T04:19:06.334Z,2.73
2018-02-02T04:20:06.239Z,2.75
2018-02-02T04:21:06.203Z,2.72
2018-02-02T04:22:06.199Z,2.69
2018-02-02T04:23:06.287Z,2.69
2018-02-02T04:24:06.163Z,2.66
2018-02-02T04:25:06.209Z,2.66
2018-02-02T04:26:06.169Z,2.65
2018-02-02T04:27:06.246Z,2.65
2018-02-02T04:28:06.211Z,2.64
2018-02-02T04:29:06.082Z,2.62
2018-02-02T04:30:06.159Z,2.62
2018-02-02T04:31:06.239Z,2.64
2018-02-02T04:32:06.191Z,2.61
2018-02-02T04:33:06.258Z,2.59
2018-02-02T04:34:06.233Z,2.58
2018-02-02T04:35:06.270Z,2.56
2018-02-02T04:36:06.325Z,2.55
2018-02-02T04:37:06.228Z,2.55
2018-02-02T04:39:01.600Z,2.51
2018-02-02T04:40:01.211Z,2.49
2018-02-02T04:41:01.314Z,2.51
2018-02-02T04:42:01.351Z,2.54
2018-02-02T04:43:01.306Z,2.52
2018-02-02T04:44:01.348Z,2.49
2018-02-02T04:45:01.425Z,2.51
2018-02-02T04:46:01.480Z,2.51
2018-02-02T04:47:01.409Z,2.52
2018-02-02T04:48:01.352Z,2.51
2018-02-02T04:49:01.272Z,2.49
2018-02-02T04:50:01.328Z,2.49
2018-02-02T04:51:01.353Z,2.49
2018-02-02T04:52:01.304Z,2.47
2018-02-02T04:53:01.343Z,2.43
2018-02-02T04:54:01.296Z,2.43
2018-02-02T04:55:01.298Z,2.43
2018-02-02T04:56:01.319Z,2.45
2018-02-02T04:57:01.376Z,2.44
2018-02-02T04:58:01.337Z,2.43
2018-02-02T04:59:01.348Z,2.4
2018-02-02T05:00:01.275Z,2.4
2018-02-02T05:01:01.422Z,2.38
2018-02-02T05:02:01.242Z,2.4
2018-02-02T05:03:01.231Z,2.4
2018-02-02T05:04:01.424Z,2.4
2018-02-02T05:05:01.315Z,2.41
2018-02-02T05:06:01.468Z,2.4
2018-02-02T05:07:01.281Z,2.4
2018-02-02T05:08:01.490Z,2.4
2018-02-02T05:08:58.326Z,2.34
2018-02-02T05:09:58.352Z,2.26
2018-02-02T05:10:58.245Z,2.2
2018-02-02T05:11:58.375Z,2.21
2018-02-02T05:12:58.389Z,2.21
2018-02-02T05:13:58.325Z,2.21
2018-02-02T05:14:58.445Z,2.18
2018-02-02T05:15:58.426Z,2.18
2018-02-02T05:16:58.336Z,2.2
2018-02-02T05:17:58.467Z,2.2
2018-02-02T05:18:58.306Z,2.2
2018-02-02T05:19:58.429Z,2.18
2018-02-02T05:20:58.246Z,2.18
2018-02-02T05:21:58.597Z,2.18
2018-02-02T05:22:58.318Z,2.17
2018-02-02T05:23:58.339Z,2.17
2018-02-02T05:24:58.344Z,2.2
2018-02-02T05:25:58.366Z,2.18
2018-02-02T05:26:58.353Z,2.21
2018-02-02T05:27:58.345Z,2.21
2018-02-02T05:28:58.463Z,2.17
2018-02-02T05:29:58.467Z,2.18
2018-02-02T05:30:58.430Z,2.2
2018-02-02T05:31:58.486Z,2.2
2018-02-02T05:32:58.350Z,2.18
2018-02-02T05:33:58.332Z,2.18
2018-02-02T05:34:58.340Z,2.2
2018-02-02T05:35:58.277Z,2.2
2018-02-02T05:36:58.238Z,2.2
2018-02-02T05:37:58.275Z,2.18
2018-02-02T05:38:58.346Z,2.21
2018-02-02T05:40:00.366Z,2.17
2018-02-02T05:41:00.477Z,2.18
2018-02-02T05:42:00.423Z,2.22
2018-02-02T05:43:00.271Z,2.2
2018-02-02T05:44:00.335Z,2.2
2018-02-02T05:45:00.408Z,2.18
2018-02-02T05:46:00.278Z,2.16
2018-02-02T05:47:00.386Z,2.17
2018-02-02T05:48:00.361Z,2.17
2018-02-02T05:49:00.298Z,2.14
2018-02-02T05:50:00.341Z,2.14
2018-02-02T05:51:00.360Z,2.13
2018-02-02T05:52:00.356Z,2.11
2018-02-02T05:53:00.316Z,2.13
2018-02-02T05:54:00.372Z,2.13
2018-02-02T05:55:00.321Z,2.16
2018-02-02T05:56:00.339Z,2.13
2018-02-02T05:57:00.346Z,2.17
2018-02-02T05:58:00.372Z,2.16
2018-02-02T05:59:00.260Z,2.13
2018-02-02T06:00:00.406Z,2.14
2018-02-02T06:01:00.413Z,2.17
2018-02-02T06:02:00.316Z,2.16
2018-02-02T06:03:00.522Z,2.16
2018-02-02T06:04:00.376Z,2.14
2018-02-02T06:05:00.441Z,2.13
2018-02-02T06:06:00.353Z,2.11
2018-02-02T06:07:00.311Z,2.14
2018-02-02T06:08:00.307Z,2.11
2018-02-02T06:09:00.432Z,2.13
2018-02-02T06:09:05.376Z,2.11
2018-02-02T06:10:05.453Z,2.13
2018-02-02T06:11:05.377Z,2.13
2018-02-02T06:12:05.337Z,2.16
2018-02-02T06:13:05.381Z,2.11
2018-02-02T06:14:05.387Z,2.11
2018-02-02T06:15:05.404Z,2.1
2018-02-02T06:16:06.112Z,2.11
2018-02-02T06:17:05.289Z,2.1
2018-02-02T06:18:06.019Z,2.18
2018-02-02T06:19:05.416Z,2.18
2018-02-02T06:20:05.450Z,2.18
2018-02-02T06:21:05.355Z,2.18
2018-02-02T06:22:06.488Z,2.17
2018-02-02T06:23:07.936Z,2.17
2018-02-02T06:24:05.320Z,2.2
2018-02-02T06:25:05.967Z,2.2
2018-02-02T06:26:05.287Z,2.18
2018-02-02T06:27:05.367Z,2.16
2018-02-02T06:28:05.421Z,2.13
2018-02-02T06:29:05.399Z,2.14
2018-02-02T06:30:05.706Z,2.16
2018-02-02T06:31:05.423Z,2.13
2018-02-02T06:32:05.433Z,2.13
2018-02-02T06:33:05.418Z,2.11
2018-02-02T06:34:05.387Z,2.11
2018-02-02T06:35:05.423Z,2.09
2018-02-02T06:36:05.436Z,2.09
2018-02-02T06:37:05.341Z,2.11
2018-02-02T06:38:05.726Z,2.07
2018-02-02T06:39:05.547Z,2.07
2018-02-02T06:40:08.480Z,2.06
2018-02-02T06:41:08.581Z,2.06
2018-02-02T06:42:08.492Z,2.09
2018-02-02T06:43:08.475Z,2.11
2018-02-02T06:44:08.687Z,2.1
2018-02-02T06:45:08.505Z,2.11
2018-02-02T06:46:08.469Z,2.1
2018-02-02T06:47:08.573Z,2.13
2018-02-02T06:48:08.452Z,2.11
2018-02-02T06:49:08.989Z,2.14
2018-02-02T06:50:08.523Z,2.14
2018-02-02T06:51:08.457Z,2.13
2018-02-02T06:52:08.453Z,2.17
2018-02-02T06:53:08.402Z,2.14
2018-02-02T06:54:08.456Z,2.16
2018-02-02T06:55:08.468Z,2.14
2018-02-02T06:56:08.496Z,2.17
2018-02-02T06:57:08.470Z,2.17
2018-02-02T06:58:08.489Z,2.16
2018-02-02T06:59:08.584Z,2.18
2018-02-02T07:00:08.472Z,2.18
2018-02-02T07:01:08.667Z,2.2
2018-02-02T07:02:08.402Z,2.18
2018-02-02T07:03:08.429Z,2.18
2018-02-02T07:04:08.540Z,2.2
2018-02-02T07:05:08.368Z,2.22
2018-02-02T07:06:08.439Z,2.22
2018-02-02T07:07:08.480Z,2.21
2018-02-02T07:08:08.403Z,2.24
2018-02-02T07:09:08.501Z,2.22
2018-02-02T07:10:06.521Z,2.24
2018-02-02T07:11:06.501Z,2.28
2018-02-02T07:12:06.446Z,2.28
2018-02-02T07:13:06.472Z,2.28
2018-02-02T07:14:06.509Z,2.28
2018-02-02T07:15:06.461Z,2.31
2018-02-02T07:16:06.719Z,2.33
2018-02-02T07:17:06.489Z,2.33
2018-02-02T07:18:06.479Z,2.31
2018-02-02T07:19:06.509Z,2.34
2018-02-02T07:20:06.489Z,2.33
2018-02-02T07:21:06.468Z,2.33
2018-02-02T07:22:06.526Z,2.33
2018-02-02T07:23:06.604Z,2.34
2018-02-02T07:24:06.452Z,2.36
2018-02-02T07:25:06.475Z,2.36
2018-02-02T07:26:06.481Z,2.38
2018-02-02T07:27:06.451Z,2.41
2018-02-02T07:28:06.516Z,2.37
2018-02-02T07:29:06.516Z,2.38
2018-02-02T07:30:06.558Z,2.38
2018-02-02T07:31:06.591Z,2.37
2018-02-02T07:32:06.545Z,2.36
2018-02-02T07:33:06.488Z,2.37
2018-02-02T07:34:06.804Z,2.4
2018-02-02T07:35:06.413Z,2.4
2018-02-02T07:36:06.445Z,2.4
2018-02-02T07:37:06.452Z,2.43
2018-02-02T07:38:06.443Z,2.4
2018-02-02T07:39:06.987Z,2.41
2018-02-02T07:40:06.564Z,2.41
2018-02-02T07:42:00.628Z,2.44
2018-02-02T07:43:00.627Z,2.47
2018-02-02T07:44:00.636Z,2.44
2018-02-02T07:45:00.697Z,2.47
2018-02-02T07:46:00.724Z,2.48
2018-02-02T07:47:00.667Z,2.48
2018-02-02T07:48:00.613Z,2.51
2018-02-02T07:49:00.638Z,2.49
2018-02-02T07:50:00.624Z,2.54
2018-02-02T07:51:00.628Z,2.52
2018-02-02T07:52:00.766Z,2.52
2018-02-02T07:53:00.641Z,2.55
2018-02-02T07:54:00.583Z,2.54
2018-02-02T07:55:00.693Z,2.56
2018-02-02T07:56:00.583Z,2.55
2018-02-02T07:57:00.540Z,2.58
2018-02-02T07:58:00.629Z,2.56
2018-02-02T07:59:00.587Z,2.59
2018-02-02T08:00:00.609Z,2.58
2018-02-02T08:01:00.593Z,2.56
2018-02-02T08:02:00.558Z,2.58
2018-02-02T08:03:00.706Z,2.62
2018-02-02T08:04:00.598Z,2.59
2018-02-02T08:05:00.591Z,2.61
2018-02-02T08:06:00.632Z,2.62
2018-02-02T08:07:00.635Z,2.62
2018-02-02T08:08:00.682Z,2.66
2018-02-02T08:09:00.692Z,2.69
2018-02-02T08:10:00.618Z,2.65
2018-02-02T08:11:00.919Z,2.68
2018-02-02T08:11:56.692Z,2.66
2018-02-02T08:12:56.700Z,2.69
2018-02-02T08:13:56.689Z,2.68
2018-02-02T08:14:56.682Z,2.71
2018-02-02T08:15:56.672Z,2.71
2018-02-02T08:16:56.736Z,2.73
2018-02-02T08:17:56.736Z,2.75
2018-02-02T08:18:56.760Z,2.75
2018-02-02T08:19:56.634Z,2.75
2018-02-02T08:20:56.692Z,2.77
2018-02-02T08:21:56.626Z,2.76
2018-02-02T08:22:56.722Z,2.79
2018-02-02T08:23:56.610Z,2.79
2018-02-02T08:24:56.650Z,2.8
2018-02-02T08:25:56.636Z,2.82
2018-02-02T08:26:56.796Z,2.84
2018-02-02T08:27:56.690Z,2.82
2018-02-02T08:28:56.684Z,2.82
2018-02-02T08:29:56.723Z,2.84
2018-02-02T08:30:56.672Z,2.86
2018-02-02T08:31:56.709Z,2.87
2018-02-02T08:32:56.701Z,2.86
2018-02-02T08:33:56.771Z,2.89
2018-02-02T08:36:07.184Z,2.93
2018-02-02T08:36:56.746Z,2.94
2018-02-02T08:37:56.638Z,2.94
2018-02-02T08:38:56.819Z,2.97
2018-02-02T08:39:56.699Z,3
2018-02-02T08:40:56.846Z,3
2018-02-02T08:41:56.855Z,2.99
2018-02-02T08:42:58.812Z,3.03
2018-02-02T08:43:58.711Z,3.03
2018-02-02T08:44:58.744Z,3.01
2018-02-02T08:45:58.715Z,3.03
2018-02-02T08:46:58.764Z,3.01
2018-02-02T08:47:58.872Z,3.01
2018-02-02T08:48:58.762Z,3.06
2018-02-02T08:49:58.748Z,3.03
2018-02-02T08:50:58.786Z,3.04
2018-02-02T08:51:58.842Z,3.04
2018-02-02T08:52:58.842Z,3.04
2018-02-02T08:53:58.834Z,3.06
2018-02-02T08:54:58.777Z,3.06
2018-02-02T08:55:58.766Z,3.06
2018-02-02T08:56:58.725Z,3.07
2018-02-02T08:57:58.804Z,3.07
2018-02-02T08:58:58.728Z,3.06
2018-02-02T08:59:58.770Z,3.06
2018-02-02T09:00:58.858Z,3.07
2018-02-02T09:01:58.782Z,3.08
2018-02-02T09:02:58.783Z,3.08
2018-02-02T09:03:58.750Z,3.1
2018-02-02T09:04:58.726Z,3.1
2018-02-02T09:05:59.720Z,3.11
2018-02-02T09:06:58.759Z,3.12
2018-02-02T09:07:58.721Z,3.11
2018-02-02T09:08:58.717Z,3.12
2018-02-02T09:09:58.713Z,3.14
2018-02-02T09:10:59.094Z,3.08
2018-02-02T09:11:58.900Z,3.11
2018-02-02T09:12:05.870Z,3.11
2018-02-02T09:13:05.976Z,3.12
2018-02-02T09:14:06.087Z,3.14
2018-02-02T09:15:06.365Z,3.12
2018-02-02T09:16:06.093Z,3.12
2018-02-02T09:17:05.726Z,3.14
2018-02-02T09:18:06.179Z,3.17
2018-02-02T09:19:05.872Z,3.15
2018-02-02T09:20:05.921Z,3.17
2018-02-02T09:21:05.877Z,3.14
2018-02-02T09:22:05.544Z,3.17
2018-02-02T09:23:05.470Z,3.17
2018-02-02T09:24:05.993Z,3.18
2018-02-02T09:25:05.955Z,3.18
2018-02-02T09:26:06.126Z,3.21
2018-02-02T09:27:05.816Z,3.21
2018-02-02T09:28:05.960Z,3.2
2018-02-02T09:29:05.933Z,3.2
2018-02-02T09:30:05.969Z,3.17
2018-02-02T09:31:05.550Z,3.18
2018-02-02T09:32:06.064Z,3.18
2018-02-02T09:33:05.829Z,3.2
2018-02-02T09:34:05.994Z,3.21
2018-02-02T09:35:05.809Z,3.2
2018-02-02T09:36:05.927Z,3.18
2018-02-02T09:37:05.961Z,3.18
2018-02-02T09:38:05.778Z,3.2
2018-02-02T09:39:06.326Z,3.18
2018-02-02T09:40:05.372Z,3.2
2018-02-02T09:41:05.798Z,3.2
2018-02-02T09:42:05.910Z,3.21
2018-02-02T09:43:08.995Z,3.2
2018-02-02T09:44:08.904Z,3.22
2018-02-02T09:45:08.961Z,3.22
2018-02-02T09:46:08.907Z,3.25
2018-02-02T09:47:08.875Z,3.24
2018-02-02T09:48:08.977Z,3.24
2018-02-02T09:49:08.955Z,3.25
2018-02-02T09:50:08.994Z,3.28
2018-02-02T09:51:08.850Z,3.31
2018-02-02T09:52:08.864Z,3.28
2018-02-02T09:53:08.970Z,3.28
2018-02-02T09:54:08.857Z,3.31
2018-02-02T09:55:08.909Z,3.29
2018-02-02T09:56:08.953Z,3.32
2018-02-02T09:57:08.893Z,3.29
2018-02-02T09:58:08.906Z,3.31
2018-02-02T09:59:08.905Z,3.34
2018-02-02T10:00:08.998Z,3.35
2018-02-02T10:01:09.667Z,3.31
2018-02-02T10:02:08.904Z,3.32
2018-02-02T10:03:08.922Z,3.29
2018-02-02T10:04:08.918Z,3.28
2018-02-02T10:05:08.895Z,3.29
2018-02-02T10:06:09.012Z,3.31
2018-02-02T10:07:08.977Z,3.31
2018-02-02T10:08:08.856Z,3.31
2018-02-02T10:09:09.539Z,3.34
2018-02-02T10:10:08.900Z,3.32
2018-02-02T10:11:08.886Z,3.32
2018-02-02T10:12:09.094Z,3.34
2018-02-02T10:13:08.354Z,3.34
2018-02-02T10:14:07.097Z,3.34
2018-02-02T10:15:07.821Z,3.35
2018-02-02T10:16:07.053Z,3.35
2018-02-02T10:17:07.607Z,3.35
2018-02-02T10:18:07.092Z,3.35
2018-02-02T10:19:07.255Z,3.37
2018-02-02T10:20:07.072Z,3.37
2018-02-02T10:21:07.086Z,3.37
2018-02-02T10:22:07.539Z,3.37
2018-02-02T10:23:07.093Z,3.38
2018-02-02T10:24:07.115Z,3.41
2018-02-02T10:25:07.367Z,3.44
2018-02-02T10:26:07.879Z,3.42
2018-02-02T10:27:07.087Z,3.41
2018-02-02T10:28:07.058Z,3.45
2018-02-02T10:29:07.122Z,3.46
2018-02-02T10:30:07.294Z,3.48
2018-02-02T10:31:08.486Z,3.48
2018-02-02T10:32:07.145Z,3.49
2018-02-02T10:33:07.203Z,3.49
2018-02-02T10:34:07.373Z,3.51
2018-02-02T10:35:07.161Z,3.55
2018-02-02T10:36:07.155Z,3.56
2018-02-02T10:37:07.060Z,3.55
2018-02-02T10:38:07.162Z,3.55
2018-02-02T10:39:08.265Z,3.54
2018-02-02T10:40:07.641Z,3.54
2018-02-02T10:41:07.019Z,3.55
2018-02-02T10:42:07.084Z,3.52
2018-02-02T10:43:07.206Z,3.52
2018-02-02T10:45:02.790Z,3.55
2018-02-02T10:46:01.311Z,3.54
2018-02-02T10:47:01.267Z,3.54
2018-02-02T10:48:01.366Z,3.55
2018-02-02T10:49:01.467Z,3.56
2018-02-02T10:50:01.307Z,3.58
2018-02-02T10:51:01.814Z,3.59
2018-02-02T10:52:01.217Z,3.55
2018-02-02T10:53:01.230Z,3.58
2018-02-02T10:54:02.082Z,3.59
2018-02-02T10:55:02.477Z,3.58
2018-02-02T10:56:01.208Z,3.59
2018-02-02T10:57:01.225Z,3.61
2018-02-02T10:58:01.352Z,3.61
2018-02-02T10:59:01.156Z,3.62
2018-02-02T11:00:01.191Z,3.62
2018-02-02T11:01:01.154Z,3.62
2018-02-02T11:02:01.185Z,3.62
2018-02-02T11:03:01.219Z,3.59
2018-02-02T11:04:01.266Z,3.59
2018-02-02T11:05:01.256Z,3.61
2018-02-02T11:06:01.309Z,3.62
2018-02-02T11:07:01.294Z,3.59
2018-02-02T11:08:01.346Z,3.61
2018-02-02T11:09:01.229Z,3.59
2018-02-02T11:10:01.239Z,3.62
2018-02-02T11:11:01.198Z,3.63
2018-02-02T11:12:01.296Z,3.67
2018-02-02T11:13:01.368Z,3.69
2018-02-02T11:14:01.379Z,3.69
2018-02-02T11:14:57.272Z,3.67
2018-02-02T11:15:57.297Z,3.7
2018-02-02T11:16:57.352Z,3.69
2018-02-02T11:17:57.268Z,3.73
2018-02-02T11:18:57.175Z,3.69
2018-02-02T11:19:57.278Z,3.7
2018-02-02T11:20:57.191Z,3.72
2018-02-02T11:21:57.269Z,3.69
2018-02-02T11:22:57.242Z,3.67
2018-02-02T11:23:57.282Z,3.7
2018-02-02T11:24:57.339Z,3.7
2018-02-02T11:25:57.256Z,3.65
2018-02-02T11:26:57.201Z,3.67
2018-02-02T11:27:57.277Z,3.73
2018-02-02T11:28:57.214Z,3.73
2018-02-02T11:29:57.236Z,3.77
2018-02-02T11:30:57.183Z,3.77
2018-02-02T11:31:57.250Z,3.79
2018-02-02T11:32:57.190Z,3.8
2018-02-02T11:33:57.196Z,3.82
2018-02-02T11:34:57.184Z,3.83
2018-02-02T11:35:57.212Z,3.89
2018-02-02T11:36:57.233Z,3.9
2018-02-02T11:37:57.351Z,3.91
2018-02-02T11:38:57.663Z,3.93
2018-02-02T11:39:57.291Z,3.96
2018-02-02T11:40:57.272Z,3.94
2018-02-02T11:41:57.168Z,3.97
2018-02-02T11:42:57.209Z,3.97
2018-02-02T11:43:57.464Z,3.98
2018-02-02T11:44:57.333Z,3.98
2018-02-02T11:47:59.236Z,4.02
2018-02-02T11:48:59.409Z,4.01
2018-02-02T11:49:59.288Z,4.01
2018-02-02T11:50:59.410Z,4.04
2018-02-02T11:51:59.290Z,4.01
2018-02-02T11:52:59.272Z,4.04
2018-02-02T11:53:59.312Z,4.05
2018-02-02T11:54:59.304Z,4.02
2018-02-02T11:55:59.338Z,4.02
2018-02-02T11:56:59.278Z,4.02
2018-02-02T11:57:59.328Z,4.05
2018-02-02T11:58:59.388Z,4.07
2018-02-02T11:59:59.248Z,4.08
2018-02-02T12:00:59.236Z,4.1
2018-02-02T12:01:59.268Z,4.1
2018-02-02T12:02:59.300Z,4.12
2018-02-02T12:03:59.306Z,4.1
2018-02-02T12:04:59.231Z,4.12
2018-02-02T12:05:59.294Z,4.1
2018-02-02T12:06:59.246Z,4.08
2018-02-02T12:07:59.315Z,4.05
2018-02-02T12:08:59.316Z,4.1
2018-02-02T12:09:59.323Z,4.07
2018-02-02T12:10:59.301Z,4.1
2018-02-02T12:11:59.503Z,4.12
2018-02-02T12:12:59.306Z,4.14
2018-02-02T12:13:59.277Z,4.14
2018-02-02T12:14:59.339Z,4.15
2018-02-02T12:15:05.438Z,4.14
2018-02-02T12:16:05.433Z,4.15
2018-02-02T12:17:05.360Z,4.14
2018-02-02T12:18:05.362Z,4.11
2018-02-02T12:19:05.497Z,4.1
2018-02-02T12:20:05.326Z,4.12
2018-02-02T12:21:05.367Z,4.14
2018-02-02T12:22:05.360Z,4.15
2018-02-02T12:23:05.298Z,4.18
2018-02-02T12:24:05.417Z,4.19
2018-02-02T12:25:05.359Z,4.22
2018-02-02T12:26:05.595Z,4.24
2018-02-02T12:27:05.387Z,4.25
2018-02-02T12:28:05.339Z,4.24
2018-02-02T12:29:05.447Z,4.24
2018-02-02T12:30:05.383Z,4.24
2018-02-02T12:31:05.473Z,4.19
2018-02-02T12:32:05.371Z,4.24
2018-02-02T12:33:05.347Z,4.19
2018-02-02T12:34:05.339Z,4.19
2018-02-02T12:35:05.397Z,4.18
2018-02-02T12:36:05.492Z,4.21
2018-02-02T12:37:05.487Z,4.19
2018-02-02T12:38:05.343Z,4.19
2018-02-02T12:39:05.387Z,4.18
2018-02-02T12:40:05.405Z,4.19
2018-02-02T12:41:05.504Z,4.17
2018-02-02T12:42:05.468Z,4.17
2018-02-02T12:43:05.438Z,4.17
2018-02-02T12:44:05.358Z,4.19
2018-02-02T12:45:05.592Z,4.15
2018-02-02T12:46:09.500Z,4.17
2018-02-02T12:47:09.483Z,4.18
2018-02-02T12:48:09.463Z,4.17
2018-02-02T12:49:09.505Z,4.15
2018-02-02T12:50:09.425Z,4.18
2018-02-02T12:51:09.362Z,4.18
2018-02-02T12:52:09.493Z,4.18
2018-02-02T12:53:09.489Z,4.18
2018-02-02T12:54:09.353Z,4.19
2018-02-02T12:55:09.352Z,4.21
2018-02-02T12:56:09.444Z,4.22
2018-02-02T12:57:09.517Z,4.19
2018-02-02T12:58:09.601Z,4.21
2018-02-02T12:59:09.465Z,4.17
2018-02-02T13:00:09.465Z,4.19
2018-02-02T13:01:09.453Z,4.24
2018-02-02T13:02:09.554Z,4.24
2018-02-02T13:03:09.516Z,4.25
2018-02-02T13:04:09.462Z,4.26
2018-02-02T13:05:09.402Z,4.29
2018-02-02T13:06:09.389Z,4.29
2018-02-02T13:07:09.440Z,4.3
2018-02-02T13:08:09.469Z,4.32
2018-02-02T13:09:09.485Z,4.33
2018-02-02T13:10:09.355Z,4.36
2018-02-02T13:11:09.344Z,4.36
2018-02-02T13:12:09.361Z,4.38
2018-02-02T13:13:09.373Z,4.39
2018-02-02T13:14:09.462Z,4.38
2018-02-02T13:15:09.534Z,4.38
2018-02-02T13:16:07.514Z,4.4
2018-02-02T13:17:07.609Z,4.4
2018-02-02T13:18:07.451Z,4.4
2018-02-02T13:19:07.519Z,4.46
2018-02-02T13:20:07.538Z,4.49
2018-02-02T13:21:07.473Z,4.51
2018-02-02T13:22:07.484Z,4.52
2018-02-02T13:23:07.439Z,4.55
2018-02-02T13:24:07.495Z,4.57